Time;durP1;ratioP1;P1;durP2;ratioP2;P2;SDS_P1;SDS_P2;PMS_P1;PMS_P2;Temp;Humidity;BMP_temperature;BMP_pressure;BME280_temperature;BME280_humidity;BME280_pressure;Samples;Min_cycle;Max_cycle;Signal;HPM_P1;HPM_P2
2022/12/28 00:00:26;;;;;;;0.10;0.00;;;;;;;12.55;100.00;98851.41;7393627;19;20033;-81
2022/12/28 00:02:52;;;;;;;7.63;0.38;;;;;;;14.73;100.00;98853.53;7399350;19;20021;-81
2022/12/28 00:05:18;;;;;;;0.10;0.00;;;;;;;13.28;100.00;98858.94;7398274;19;20015;-81
2022/12/28 00:07:44;;;;;;;0.57;0.08;;;;;;;13.46;100.00;98869.50;7397557;19;20424;-80
2022/12/28 00:10:11;;;;;;;0.10;0.00;;;;;;;12.66;100.00;98865.34;7397926;19;20469;-81
2022/12/28 00:12:37;;;;;;;0.10;0.10;;;;;;;12.56;100.00;98870.44;7395140;19;20022;-81
2022/12/28 00:15:03;;;;;;;0.10;0.10;;;;;;;13.13;100.00;98874.53;7396928;19;20022;-81
2022/12/28 00:17:29;;;;;;;0.10;0.00;;;;;;;14.63;100.00;98883.22;7397313;19;20473;-81
2022/12/28 00:19:58;;;;;;;0.47;0.47;;;;;;;14.68;100.00;98879.59;7396367;19;20007;-80
2022/12/28 00:22:26;;;;;;;1.13;0.30;;;;;;;14.20;100.00;98880.34;7393555;19;20011;-81
2022/12/28 00:24:52;;;;;;;0.10;0.00;;;;;;;13.67;100.00;98881.81;7397874;19;20586;-81
2022/12/28 00:27:18;;;;;;;0.10;0.10;;;;;;;12.31;100.00;98881.94;7400414;19;20038;-80
2022/12/28 00:29:44;;;;;;;0.90;0.22;;;;;;;13.41;100.00;98887.06;7397396;19;20034;-80
2022/12/28 00:32:10;;;;;;;0.10;0.10;;;;;;;13.28;100.00;98892.50;7393280;19;20516;-80
2022/12/28 00:34:37;;;;;;;0.10;0.00;;;;;;;12.38;100.00;98889.78;7392440;19;20501;-82
2022/12/28 00:37:06;;;;;;;0.10;0.10;;;;;;;13.63;100.00;98889.72;7392897;19;20015;-80
2022/12/28 00:39:32;;;;;;;0.35;0.20;;;;;;;12.72;100.00;98891.22;7393544;19;20131;-79
2022/12/28 00:41:58;;;;;;;2.65;0.17;;;;;;;12.68;100.00;98890.72;7395667;19;20006;-79
2022/12/28 00:44:25;;;;;;;1.10;0.55;;;;;;;11.68;100.00;98882.50;7395096;19;20022;-80
2022/12/28 00:46:51;;;;;;;1.40;0.15;;;;;;;15.40;100.00;98875.81;7396243;19;20029;-80
2022/12/28 00:49:17;;;;;;;0.15;0.00;;;;;;;12.90;100.00;98873.88;7394467;19;20480;-80
2022/12/28 00:51:43;;;;;;;0.10;0.00;;;;;;;17.85;100.00;98867.78;7393002;19;20010;-80
2022/12/28 00:54:09;;;;;;;0.43;0.22;;;;;;;16.43;100.00;98857.03;7392122;19;20007;-81
2022/12/28 00:56:36;;;;;;;0.10;0.00;;;;;;;11.68;100.00;98854.59;7397846;19;20011;-79
2022/12/28 00:59:02;;;;;;;3.85;0.13;;;;;;;14.83;100.00;98842.72;7393917;19;20024;-79
2022/12/28 01:01:28;;;;;;;0.13;0.10;;;;;;;9.66;100.00;98846.41;7391639;19;20018;-80
2022/12/28 01:03:57;;;;;;;0.10;0.10;;;;;;;8.40;100.00;98830.78;7398164;19;20134;-80
2022/12/28 01:06:25;;;;;;;1.00;0.40;;;;;;;7.67;100.00;98830.22;7398985;19;20018;-79
2022/12/28 01:08:51;;;;;;;0.10;0.00;;;;;;;10.24;100.00;98818.03;7395126;19;20018;-80
2022/12/28 01:11:26;;;;;;;0.30;0.25;;;;;;;12.02;100.00;98819.81;7393567;19;20022;-80
2022/12/28 01:13:55;;;;;;;0.10;0.00;;;;;;;12.95;100.00;98801.16;7395295;19;20014;-80
2022/12/28 01:16:26;;;;;;;0.20;0.13;;;;;;;10.02;100.00;98812.31;7392066;19;20022;-79
2022/12/28 01:18:55;;;;;;;0.20;0.20;;;;;;;7.17;100.00;98818.31;7393302;19;20015;-80
2022/12/28 01:21:23;;;;;;;0.10;0.10;;;;;;;6.44;100.00;98818.22;7391167;19;20021;-79
2022/12/28 01:23:55;;;;;;;0.32;0.13;;;;;;;5.71;100.00;98832.47;7397926;19;20014;-79
2022/12/28 01:26:22;;;;;;;0.10;0.10;;;;;;;5.47;100.00;98845.44;7398262;19;20056;-79
2022/12/28 01:28:49;;;;;;;0.10;0.10;;;;;;;5.33;100.00;98852.38;7395366;19;20461;-80
2022/12/28 01:31:16;;;;;;;0.10;0.00;;;;;;;5.31;100.00;98851.31;7387588;19;20077;-79
2022/12/28 01:33:43;;;;;;;0.10;0.10;;;;;;;11.32;100.00;98833.28;7397310;19;20022;-79
2022/12/28 01:36:14;;;;;;;0.10;0.00;;;;;;;11.83;100.00;98827.22;7393506;19;20010;-80
2022/12/28 01:38:41;;;;;;;0.30;0.25;;;;;;;11.79;100.00;98823.94;7389931;19;20042;-79
2022/12/28 01:41:09;;;;;;;0.10;0.00;;;;;;;12.25;100.00;98822.56;7391209;19;20046;-78
2022/12/28 01:43:43;;;;;;;0.10;0.00;;;;;;;12.39;100.00;98829.91;7396908;19;20019;-80
2022/12/28 01:46:17;;;;;;;0.35;0.22;;;;;;;12.13;100.00;98827.41;7390402;19;20014;-79
2022/12/28 01:48:57;;;;;;;0.20;0.20;;;;;;;12.32;100.00;98813.66;7392075;19;20029;-79
2022/12/28 01:51:28;;;;;;;0.10;0.10;;;;;;;8.09;100.00;98820.25;7391055;19;20010;-79
2022/12/28 01:53:58;;;;;;;0.80;0.10;;;;;;;9.36;100.00;98828.47;7393402;19;20038;-79
2022/12/28 01:56:25;;;;;;;0.00;0.00;;;;;;;12.92;100.00;98821.03;7394771;19;20032;-79
2022/12/28 01:58:53;;;;;;;0.10;0.10;;;;;;;12.32;100.00;98830.41;7389916;19;20014;-79
2022/12/28 02:01:19;;;;;;;0.10;0.00;;;;;;;9.34;100.00;98836.53;7391623;19;20056;-79
2022/12/28 02:03:45;;;;;;;0.10;0.10;;;;;;;11.37;100.00;98827.69;7397692;19;20022;-79
2022/12/28 02:06:12;;;;;;;2.97;0.15;;;;;;;13.40;100.00;98815.66;7391813;19;20011;-79
2022/12/28 02:09:09;;;;;;;0.50;0.10;;;;;;;13.55;100.00;98810.44;7392188;19;20042;-82
2022/12/28 02:11:36;;;;;;;2.08;0.82;;;;;;;13.30;100.00;98814.44;7391450;19;20472;-82
2022/12/28 02:14:06;;;;;;;0.20;0.20;;;;;;;14.74;100.00;98815.81;7390447;19;20019;-81
2022/12/28 02:16:32;;;;;;;1.38;0.15;;;;;;;14.17;100.00;98802.22;7391681;19;20022;-82
2022/12/28 02:18:58;;;;;;;0.15;0.10;;;;;;;14.62;100.00;98796.88;7391346;19;20021;-81
2022/12/28 02:21:33;;;;;;;7.13;0.43;;;;;;;17.27;100.00;98774.47;7390665;19;20103;-82
2022/12/28 02:24:18;;;;;;;0.70;0.20;;;;;;;17.62;95.32;98782.34;7395697;19;20171;-82
2022/12/28 02:27:13;;;;;;;0.00;0.00;;;;;;;19.58;100.00;98771.28;7397969;19;20018;-82
2022/12/28 02:30:07;;;;;;;0.32;0.30;;;;;;;12.25;100.00;98786.28;7390134;19;20014;-82
2022/12/28 02:32:59;;;;;;;0.30;0.25;;;;;;;10.72;100.00;98792.13;7389489;19;20018;-81
2022/12/28 02:35:43;;;;;;;0.10;0.00;;;;;;;11.65;100.00;98794.22;7392026;19;20025;-82
2022/12/28 02:38:31;;;;;;;0.00;0.00;;;;;;;11.76;100.00;98797.03;7390354;19;20011;-81
2022/12/28 02:41:07;;;;;;;0.10;0.00;;;;;;;12.02;100.00;98800.28;7391790;19;20019;-81
2022/12/28 02:43:34;;;;;;;0.00;0.00;;;;;;;7.81;100.00;98798.94;7394337;19;20029;-81
2022/12/28 02:51:46;;;;;;;0.10;0.00;;;;;;;6.40;100.00;98778.91;7392024;19;20018;-79
2022/12/28 02:58:01;;;;;;;0.40;0.38;;;;;;;5.47;100.00;98783.94;7386542;19;20014;-79
2022/12/28 03:00:50;;;;;;;0.08;0.05;;;;;;;5.37;100.00;98788.75;7388403;19;20033;-79
2022/12/28 03:03:23;;;;;;;0.30;0.15;;;;;;;5.41;100.00;98816.94;7393320;19;20078;-79
2022/12/28 03:09:36;;;;;;;1.02;0.30;;;;;;;5.27;100.00;98810.06;7387564;19;20018;-79
2022/12/28 03:12:09;;;;;;;0.10;0.10;;;;;;;5.26;100.00;98805.03;7389162;19;20029;-79
2022/12/28 03:14:52;;;;;;;0.10;0.10;;;;;;;5.53;100.00;98796.63;7388798;19;20070;-79
2022/12/28 03:31:31;;;;;;;6.50;0.43;;;;;;;5.62;100.00;98782.00;7387509;19;20457;-79
2022/12/28 03:34:08;;;;;;;0.10;0.10;;;;;;;5.78;100.00;98779.59;7391923;19;20015;-79
2022/12/28 03:37:40;;;;;;;0.47;0.20;;;;;;;5.94;100.00;98765.44;7386442;19;20011;-79
2022/12/28 03:40:26;;;;;;;0.30;0.30;;;;;;;6.00;100.00;98746.97;7383460;19;20003;-79
2022/12/28 03:45:57;;;;;;;2.00;0.95;;;;;;;5.82;100.00;98747.06;7389350;19;20015;-79
2022/12/28 03:48:24;;;;;;;0.55;0.55;;;;;;;5.63;100.00;98756.69;7388398;19;20028;-79
2022/12/28 03:50:52;;;;;;;0.30;0.10;;;;;;;10.23;100.00;98730.22;7389218;19;20756;-79
2022/12/28 03:53:24;;;;;;;0.35;0.35;;;;;;;10.96;100.00;98731.16;7389990;19;20361;-79
2022/12/28 03:56:08;;;;;;;8.68;0.47;;;;;;;11.43;100.00;98730.16;7388866;19;20019;-79
2022/12/28 03:58:34;;;;;;;0.40;0.40;;;;;;;9.44;100.00;98724.00;7386549;19;20025;-78
2022/12/28 04:01:03;;;;;;;0.17;0.10;;;;;;;11.18;100.00;98715.22;7388702;19;20271;-79
2022/12/28 04:03:30;;;;;;;0.10;0.00;;;;;;;11.36;100.00;98709.13;7393476;19;20048;-79
2022/12/28 04:05:56;;;;;;;3.20;0.47;;;;;;;11.18;100.00;98706.84;7390415;19;20018;-79
2022/12/28 04:08:23;;;;;;;1.00;0.08;;;;;;;14.84;100.00;98695.66;7392508;19;20018;-79
2022/12/28 04:10:49;;;;;;;15.30;0.35;;;;;;;17.36;100.00;98698.00;7395054;19;20360;-79
2022/12/28 04:13:15;;;;;;;0.10;0.10;;;;;;;15.87;100.00;98688.78;7396376;19;20030;-79
2022/12/28 04:15:57;;;;;;;0.83;0.27;;;;;;;12.29;100.00;98692.63;7392505;19;20464;-79
2022/12/28 04:18:23;;;;;;;4.05;0.80;;;;;;;12.36;100.00;98686.50;7393780;19;20086;-79
2022/12/28 04:20:54;;;;;;;0.43;0.43;;;;;;;12.76;100.00;98684.97;7395978;19;20041;-79
2022/12/28 04:23:20;;;;;;;0.10;0.00;;;;;;;12.24;100.00;98685.03;7399000;19;20022;-79
2022/12/28 04:25:57;;;;;;;1.17;0.82;;;;;;;14.89;100.00;98690.00;7397339;19;20082;-79
2022/12/28 04:28:24;;;;;;;0.13;0.05;;;;;;;12.33;100.00;98675.59;7395035;19;20021;-79
2022/12/28 04:31:11;;;;;;;0.45;0.45;;;;;;;12.00;100.00;98671.69;7394853;19;20397;-79
2022/12/28 04:33:39;;;;;;;1.35;0.43;;;;;;;11.95;100.00;98669.66;7396661;19;20458;-79
2022/12/28 04:36:14;;;;;;;0.00;0.00;;;;;;;16.41;100.00;98651.66;7393686;19;20337;-79
2022/12/28 04:38:41;;;;;;;0.10;0.10;;;;;;;11.61;100.00;98640.38;7391828;19;20046;-79
2022/12/28 04:41:09;;;;;;;5.18;0.90;;;;;;;7.18;100.00;98656.50;7394221;19;20085;-79
2022/12/28 04:43:35;;;;;;;0.20;0.20;;;;;;;6.40;100.00;98657.25;7396420;19;20455;-79
2022/12/28 04:46:04;;;;;;;0.10;0.10;;;;;;;6.76;100.00;98663.16;7397983;19;20051;-79
2022/12/28 04:48:31;;;;;;;0.00;0.00;;;;;;;10.23;100.00;98649.56;7397570;19;20026;-79
2022/12/28 04:50:57;;;;;;;0.10;0.00;;;;;;;10.62;100.00;98642.03;7396974;19;20014;-79
2022/12/28 04:53:24;;;;;;;0.20;0.10;;;;;;;10.86;100.00;98649.09;7395050;19;20481;-79
2022/12/28 04:55:50;;;;;;;0.20;0.20;;;;;;;10.91;100.00;98634.44;7395322;19;20485;-79
2022/12/28 04:58:16;;;;;;;5.47;0.20;;;;;;;9.37;100.00;98636.28;7391925;19;20026;-79
2022/12/28 05:00:42;;;;;;;0.10;0.00;;;;;;;10.20;100.00;98621.97;7394375;19;20014;-79
2022/12/28 05:03:08;;;;;;;0.10;0.10;;;;;;;11.20;100.00;98622.72;7399163;19;20114;-79
2022/12/28 05:05:35;;;;;;;0.20;0.20;;;;;;;12.85;100.00;98625.97;7394429;19;20018;-78
2022/12/28 05:08:02;;;;;;;0.20;0.13;;;;;;;12.30;100.00;98618.75;7394608;19;20035;-79
2022/12/28 05:10:29;;;;;;;0.10;0.10;;;;;;;14.36;100.00;98629.38;7395844;19;20583;-79
2022/12/28 05:12:55;;;;;;;0.10;0.10;;;;;;;13.21;100.00;98629.50;7395532;19;20028;-79
2022/12/28 05:15:22;;;;;;;0.10;0.00;;;;;;;13.03;100.00;98618.97;7393754;19;20010;-79
2022/12/28 05:17:48;;;;;;;0.10;0.10;;;;;;;13.86;100.00;98615.28;7393329;19;20088;-79
2022/12/28 05:20:15;;;;;;;0.10;0.10;;;;;;;15.28;100.00;98610.06;7390834;19;20019;-79
2022/12/28 05:22:41;;;;;;;1.25;1.15;;;;;;;15.99;100.00;98616.31;7396044;19;20018;-80
2022/12/28 05:25:07;;;;;;;0.10;0.10;;;;;;;16.23;100.00;98604.81;7394847;19;20018;-79
2022/12/28 05:27:33;;;;;;;0.10;0.00;;;;;;;16.46;100.00;98614.25;7395016;19;20021;-80
2022/12/28 05:29:59;;;;;;;0.00;0.00;;;;;;;21.26;88.22;98597.56;7393186;19;20090;-80
2022/12/28 05:32:26;;;;;;;0.10;0.10;;;;;;;17.15;100.00;98599.53;7393943;19;20027;-79
2022/12/28 05:34:52;;;;;;;1.05;0.73;;;;;;;11.64;100.00;98600.31;7394591;19;20034;-79
2022/12/28 05:37:18;;;;;;;0.10;0.00;;;;;;;8.17;100.00;98604.28;7392504;19;20039;-79
2022/12/28 05:39:44;;;;;;;0.10;0.10;;;;;;;6.36;100.00;98591.09;7390683;19;20029;-79
2022/12/28 05:42:10;;;;;;;0.00;0.00;;;;;;;6.54;100.00;98596.41;7391347;19;20037;-79
2022/12/28 05:44:36;;;;;;;0.10;0.10;;;;;;;6.04;100.00;98598.31;7393985;19;20821;-80
2022/12/28 05:47:02;;;;;;;0.10;0.00;;;;;;;5.29;100.00;98605.34;7392398;19;20025;-79
2022/12/28 05:49:28;;;;;;;0.20;0.10;;;;;;;5.23;100.00;98593.44;7392178;19;20017;-79
2022/12/28 05:51:55;;;;;;;0.35;0.35;;;;;;;5.13;100.00;98592.72;7395458;19;20014;-80
2022/12/28 05:54:21;;;;;;;0.10;0.10;;;;;;;5.10;100.00;98612.22;7390863;19;20010;-84
2022/12/28 05:56:50;;;;;;;0.95;0.10;;;;;;;5.05;100.00;98594.31;7396150;19;20022;-82
2022/12/28 05:59:16;;;;;;;0.13;0.13;;;;;;;5.02;100.00;98581.47;7390840;19;20471;-79
2022/12/28 06:01:43;;;;;;;0.20;0.10;;;;;;;5.02;100.00;98591.72;7391778;19;20027;-81
2022/12/28 06:04:18;;;;;;;0.10;0.10;;;;;;;5.03;100.00;98591.25;7393703;19;20021;-81
2022/12/28 06:06:46;;;;;;;0.08;0.08;;;;;;;5.00;100.00;98591.44;7394240;19;20010;-81
2022/12/28 06:09:13;;;;;;;0.10;0.00;;;;;;;4.95;100.00;98598.38;7394516;19;20010;-80
2022/12/28 06:11:39;;;;;;;0.65;0.10;;;;;;;5.11;100.00;98577.88;7392757;19;20039;-80
2022/12/28 06:14:06;;;;;;;0.10;0.08;;;;;;;4.93;100.00;98566.97;7390362;19;20026;-80
2022/12/28 06:16:36;;;;;;;0.00;0.00;;;;;;;4.85;100.00;98561.00;7391004;19;20007;-81
2022/12/28 06:19:05;;;;;;;0.10;0.00;;;;;;;4.83;100.00;98557.97;7391917;19;20094;-80
2022/12/28 06:21:33;;;;;;;0.35;0.35;;;;;;;5.22;100.00;98556.03;7391354;19;20019;-79
2022/12/28 06:24:01;;;;;;;0.10;0.10;;;;;;;5.07;100.00;98549.69;7397931;19;20033;-80
2022/12/28 06:26:29;;;;;;;3.70;0.63;;;;;;;4.84;100.00;98542.19;7397061;19;20022;-80
2022/12/28 06:28:57;;;;;;;2.17;0.40;;;;;;;5.04;100.00;98534.09;7392369;19;20022;-80
2022/12/28 06:31:26;;;;;;;0.00;0.00;;;;;;;5.32;100.00;98521.63;7394531;19;20011;-79
2022/12/28 06:33:55;;;;;;;0.08;0.00;;;;;;;5.06;100.00;98515.06;7394214;19;20006;-80
2022/12/28 06:36:24;;;;;;;0.10;0.10;;;;;;;5.24;100.00;98509.44;7388607;19;20031;-80
2022/12/28 06:38:52;;;;;;;0.35;0.30;;;;;;;4.90;100.00;98504.44;7389368;19;20014;-81
2022/12/28 06:41:20;;;;;;;0.10;0.08;;;;;;;5.81;100.00;98493.38;7390572;19;20102;-80
2022/12/28 06:43:47;;;;;;;0.05;0.05;;;;;;;5.76;100.00;98492.03;7396639;19;20025;-80
2022/12/28 06:46:15;;;;;;;0.00;0.00;;;;;;;5.67;100.00;98486.63;7391359;19;20010;-80
2022/12/28 06:48:42;;;;;;;0.30;0.20;;;;;;;5.48;100.00;98490.78;7392764;19;20014;-80
2022/12/28 06:51:22;;;;;;;0.10;0.00;;;;;;;5.35;100.00;98480.03;7391644;19;20014;-83
2022/12/28 06:53:50;;;;;;;0.10;0.00;;;;;;;5.29;100.00;98476.41;7392619;19;20086;-83
2022/12/28 06:56:23;;;;;;;0.10;0.00;;;;;;;5.27;100.00;98480.88;7392157;19;20010;-82
2022/12/28 06:58:50;;;;;;;0.10;0.00;;;;;;;5.22;100.00;98464.94;7390365;19;20007;-83
2022/12/28 07:01:25;;;;;;;0.00;0.00;;;;;;;5.20;100.00;98465.44;7391649;19;20019;-83
2022/12/28 07:03:53;;;;;;;0.00;0.00;;;;;;;5.18;100.00;98458.84;7394503;19;20029;-82
2022/12/28 07:06:22;;;;;;;1.95;0.15;;;;;;;5.19;100.00;98457.63;7390588;19;20086;-80
2022/12/28 07:08:49;;;;;;;0.10;0.10;;;;;;;5.50;100.00;98444.13;7390831;19;20018;-80
2022/12/28 07:11:19;;;;;;;0.10;0.08;;;;;;;5.26;100.00;98449.00;7391105;19;20094;-80
2022/12/28 07:13:45;;;;;;;0.00;0.00;;;;;;;5.58;100.00;98439.00;7393858;19;20018;-80
2022/12/28 07:16:22;;;;;;;0.00;0.00;;;;;;;5.64;100.00;98435.09;7389871;19;20573;-78
2022/12/28 07:18:49;;;;;;;0.75;0.10;;;;;;;5.72;100.00;98432.72;7389915;19;20007;-80
2022/12/28 07:21:19;;;;;;;0.17;0.17;;;;;;;5.39;100.00;98427.41;7389775;19;20023;-80
2022/12/28 07:23:46;;;;;;;1.43;0.30;;;;;;;5.37;100.00;98424.38;7395206;19;20025;-80
2022/12/28 07:26:15;;;;;;;0.85;0.20;;;;;;;5.44;100.00;98418.44;7393933;19;20022;-80
2022/12/28 07:28:43;;;;;;;0.10;0.10;;;;;;;5.66;100.00;98407.78;7390666;19;20497;-81
2022/12/28 07:31:12;;;;;;;0.13;0.13;;;;;;;5.70;100.00;98400.06;7388327;19;20018;-81
2022/12/28 07:33:42;;;;;;;0.10;0.10;;;;;;;5.86;100.00;98387.78;7391281;19;20018;-82
2022/12/28 07:36:11;;;;;;;0.30;0.30;;;;;;;5.86;100.00;98377.50;7388291;19;20018;-81
2022/12/28 07:38:38;;;;;;;0.10;0.00;;;;;;;5.85;100.00;98375.97;7388353;19;20472;-83
2022/12/28 07:41:10;;;;;;;1.00;0.10;;;;;;;5.85;100.00;98358.63;7387558;19;20018;-83
2022/12/28 07:43:36;;;;;;;1.27;0.15;;;;;;;5.73;100.00;98357.69;7395131;19;20010;-83
2022/12/28 07:46:05;;;;;;;0.08;0.08;;;;;;;5.79;100.00;98360.50;7400674;19;20031;-85
2022/12/28 07:48:32;;;;;;;2.30;0.55;;;;;;;5.80;100.00;98343.47;7399671;19;20018;-86
2022/12/28 07:51:18;;;;;;;0.10;0.03;;;;;;;5.91;100.00;98338.13;7399568;19;20022;-86
2022/12/28 07:53:46;;;;;;;0.05;0.05;;;;;;;5.82;100.00;98332.72;7402021;19;20524;-88
2022/12/28 07:56:13;;;;;;;0.10;0.10;;;;;;;5.87;100.00;98328.50;7398928;19;20015;-88
2022/12/28 07:58:40;;;;;;;3.50;0.65;;;;;;;5.85;100.00;98320.72;7397668;19;20019;-88
2022/12/28 08:01:12;;;;;;;0.10;0.10;;;;;;;5.87;100.00;98318.22;7397533;19;20018;-88
2022/12/28 08:03:40;;;;;;;0.10;0.10;;;;;;;5.87;100.00;98312.72;7404166;19;20018;-88
2022/12/28 08:06:18;;;;;;;0.30;0.30;;;;;;;5.90;100.00;98303.47;7399906;19;20511;-88
2022/12/28 08:08:47;;;;;;;0.00;0.00;;;;;;;5.92;100.00;98297.44;7400923;19;20011;-88
2022/12/28 08:11:19;;;;;;;2.58;0.30;;;;;;;5.98;100.00;98292.75;7401550;19;20078;-89
2022/12/28 08:13:47;;;;;;;0.40;0.30;;;;;;;6.03;100.00;98292.06;7399392;19;20007;-89
2022/12/28 08:16:14;;;;;;;0.35;0.35;;;;;;;6.05;100.00;98290.34;7401396;19;20023;-89
2022/12/28 08:18:41;;;;;;;0.10;0.00;;;;;;;6.09;100.00;98279.84;7399100;19;20021;-88
2022/12/28 08:21:14;;;;;;;0.00;0.00;;;;;;;6.12;100.00;98278.13;7400873;19;20349;-88
2022/12/28 08:23:41;;;;;;;0.32;0.32;;;;;;;6.30;100.00;98268.81;7402433;19;20015;-88
2022/12/28 08:26:09;;;;;;;1.30;0.55;;;;;;;6.40;100.00;98259.09;7403085;19;20019;-87
2022/12/28 08:28:36;;;;;;;0.20;0.20;;;;;;;6.42;100.00;98243.56;7401460;19;20364;-87
2022/12/28 08:31:13;;;;;;;0.10;0.08;;;;;;;6.41;100.00;98244.03;7400594;19;20022;-88
2022/12/28 08:33:40;;;;;;;0.10;0.00;;;;;;;6.50;100.00;98241.09;7399068;19;20029;-85
2022/12/28 08:36:08;;;;;;;0.20;0.10;;;;;;;6.51;100.00;98226.03;7400085;19;20030;-87
2022/12/28 08:38:35;;;;;;;0.20;0.17;;;;;;;6.47;100.00;98225.50;7400078;19;20007;-87
2022/12/28 08:41:04;;;;;;;0.10;0.10;;;;;;;6.54;100.00;98223.06;7399313;19;20026;-87
2022/12/28 08:43:31;;;;;;;0.10;0.10;;;;;;;6.50;100.00;98213.44;7403588;19;20038;-87
2022/12/28 08:46:27;;;;;;;0.50;0.10;;;;;;;6.56;100.00;98212.25;7400246;19;20018;-88
2022/12/28 08:48:54;;;;;;;0.52;0.47;;;;;;;6.49;100.00;98211.94;7398257;19;20078;-88
2022/12/28 08:51:23;;;;;;;2.72;0.40;;;;;;;6.23;100.00;98205.63;7403161;19;20018;-89
2022/12/28 08:53:50;;;;;;;0.75;0.47;;;;;;;6.18;100.00;98203.56;7399176;19;20022;-89
2022/12/28 08:56:28;;;;;;;0.10;0.10;;;;;;;6.48;100.00;98200.13;7398131;19;20011;-89
2022/12/28 08:58:55;;;;;;;0.68;0.10;;;;;;;6.31;100.00;98196.44;7400875;19;20014;-89
2022/12/28 09:01:24;;;;;;;0.93;0.55;;;;;;;6.38;100.00;98196.00;7401109;19;20022;-88
2022/12/28 09:03:53;;;;;;;0.10;0.10;;;;;;;6.97;100.00;98190.75;7402821;19;20029;-87
2022/12/28 09:06:22;;;;;;;1.90;0.73;;;;;;;6.92;100.00;98172.09;7401400;19;20355;-90
2022/12/28 09:08:53;;;;;;;5.57;0.30;;;;;;;6.74;100.00;98170.44;7399428;19;20037;-90
2022/12/28 09:11:20;;;;;;;0.20;0.20;;;;;;;6.69;100.00;98170.41;7398167;19;20355;-89
2022/12/28 09:13:47;;;;;;;0.88;0.65;;;;;;;6.65;100.00;98161.56;7401411;19;20713;-86
2022/12/28 09:16:17;;;;;;;0.10;0.10;;;;;;;6.61;100.00;98159.00;7399733;19;20485;-86
2022/12/28 09:18:44;;;;;;;0.75;0.32;;;;;;;6.61;100.00;98153.47;7395176;19;20015;-87
2022/12/28 09:21:21;;;;;;;2.75;0.15;;;;;;;6.64;100.00;98146.22;7396815;19;20019;-87
2022/12/28 09:23:47;;;;;;;3.22;0.65;;;;;;;6.64;100.00;98135.16;7404409;19;20015;-88
2022/12/28 09:26:16;;;;;;;0.40;0.20;;;;;;;6.67;100.00;98134.19;7400590;19;20014;-88
2022/12/28 09:28:45;;;;;;;0.47;0.20;;;;;;;6.69;100.00;98126.16;7398173;19;20010;-86
2022/12/28 09:31:11;;;;;;;0.75;0.30;;;;;;;6.70;100.00;98125.66;7399337;19;20456;-86
2022/12/28 09:36:22;;;;;;;0.40;0.40;;;;;;;6.77;100.00;98110.63;7395797;19;20078;-86
2022/12/28 09:38:49;;;;;;;0.52;0.38;;;;;;;6.77;100.00;98105.84;7391251;19;20018;-87
2022/12/28 09:41:22;;;;;;;0.25;0.22;;;;;;;6.77;100.00;98092.00;7393386;19;20020;-89
2022/12/28 09:43:53;;;;;;;0.30;0.30;;;;;;;6.94;100.00;98094.13;7402006;19;20035;-87
2022/12/28 09:46:22;;;;;;;1.40;0.40;;;;;;;6.84;100.00;98083.25;7396064;19;20129;-87
2022/12/28 09:48:53;;;;;;;1.45;1.08;;;;;;;6.87;100.00;98075.97;7396306;19;20468;-87
2022/12/28 09:51:27;;;;;;;1.10;0.70;;;;;;;6.95;100.00;98068.75;7395829;19;20018;-87
2022/12/28 09:53:54;;;;;;;3.83;0.17;;;;;;;7.00;100.00;98056.94;7400147;19;20093;-87
2022/12/28 09:56:30;;;;;;;0.13;0.10;;;;;;;7.06;100.00;98054.94;7396826;19;20444;-89
2022/12/28 09:58:56;;;;;;;0.77;0.20;;;;;;;7.13;100.00;98048.19;7394433;19;20017;-88
2022/12/28 10:01:24;;;;;;;0.73;0.13;;;;;;;7.23;100.00;98035.66;7395244;19;20010;-86
2022/12/28 10:03:50;;;;;;;0.32;0.22;;;;;;;7.38;100.00;98048.06;7402152;19;20456;-88
2022/12/28 10:06:23;;;;;;;0.40;0.15;;;;;;;7.64;100.00;98034.03;7396247;19;20023;-88
2022/12/28 10:08:56;;;;;;;3.50;0.17;;;;;;;7.89;100.00;98024.00;7397634;19;20110;-87
2022/12/28 10:11:26;;;;;;;1.80;0.22;;;;;;;8.09;100.00;98021.78;7396499;19;20018;-88
2022/12/28 10:13:58;;;;;;;4.18;0.38;;;;;;;8.57;100.00;98016.00;7397538;19;20045;-88
2022/12/28 10:16:28;;;;;;;1.40;0.15;;;;;;;8.56;100.00;98008.91;7395245;19;20400;-90
2022/12/28 10:18:54;;;;;;;0.20;0.20;;;;;;;8.57;100.00;97999.34;7396543;19;20464;-90
2022/12/28 10:21:23;;;;;;;0.32;0.30;;;;;;;8.61;100.00;97993.53;7396254;19;20018;-91
2022/12/28 10:23:52;;;;;;;0.75;0.52;;;;;;;8.69;100.00;97984.16;7406180;19;20014;-92
2022/12/28 10:26:19;;;;;;;0.30;0.25;;;;;;;8.84;100.00;97981.09;7402696;19;20018;-91
2022/12/28 10:28:57;;;;;;;1.23;0.35;;;;;;;8.88;100.00;97978.84;7399480;19;20014;-90
2022/12/28 10:32:03;;;;;;;5.97;0.93;;;;;;;9.16;100.00;97965.56;7399149;19;20022;-89
2022/12/28 10:34:32;;;;;;;2.25;1.30;;;;;;;9.22;100.00;97960.00;7395860;19;20025;-89
2022/12/28 10:37:14;;;;;;;1.13;0.77;;;;;;;9.27;100.00;97943.31;7396649;19;20009;-89
2022/12/28 10:39:57;;;;;;;0.20;0.20;;;;;;;9.30;100.00;97947.09;7396409;19;20014;-87
2022/12/28 10:42:32;;;;;;;2.08;0.40;;;;;;;9.34;100.00;97930.91;7396418;19;20022;-93
2022/12/28 10:45:05;;;;;;;0.50;0.45;;;;;;;9.37;100.00;97924.31;7397942;19;20381;-89
2022/12/28 10:47:42;;;;;;;1.88;0.47;;;;;;;9.24;100.00;97913.03;7397130;19;20041;-89
2022/12/28 10:50:46;;;;;;;3.90;0.95;;;;;;;9.18;100.00;97901.22;7396318;19;20013;-88
2022/12/28 10:53:17;;;;;;;0.73;0.52;;;;;;;9.20;100.00;97888.34;7399368;19;20031;-89
2022/12/28 10:55:43;;;;;;;1.60;0.85;;;;;;;9.25;100.00;97873.63;7397802;19;20025;-89
2022/12/28 10:58:21;;;;;;;1.73;0.17;;;;;;;9.24;100.00;97866.59;7397487;19;20018;-90
2022/12/28 11:00:59;;;;;;;7.60;1.77;;;;;;;9.26;100.00;97858.50;7394612;19;20417;-89
2022/12/28 11:03:29;;;;;;;10.80;1.25;;;;;;;9.26;100.00;97843.84;7398629;19;20085;-90
2022/12/28 11:06:08;;;;;;;5.65;0.88;;;;;;;9.39;100.00;97833.66;7397186;19;20010;-90
2022/12/28 11:08:35;;;;;;;3.47;1.02;;;;;;;9.40;100.00;97817.75;7397328;19;20081;-87
2022/12/28 11:11:01;;;;;;;2.03;0.88;;;;;;;9.38;100.00;97831.38;7395820;19;20022;-87
2022/12/28 11:13:27;;;;;;;0.20;0.20;;;;;;;9.40;100.00;97806.63;7395675;19;20470;-85
2022/12/28 11:15:53;;;;;;;0.10;0.10;;;;;;;9.39;100.00;97808.66;7393696;19;20456;-86
2022/12/28 11:18:20;;;;;;;1.80;0.98;;;;;;;9.50;100.00;97807.81;7392013;19;20015;-86
2022/12/28 11:20:50;;;;;;;0.45;0.08;;;;;;;9.52;100.00;97803.25;7392835;19;20604;-85
2022/12/28 11:23:30;;;;;;;1.33;0.60;;;;;;;9.45;100.00;97798.25;7396285;19;20007;-84
2022/12/28 11:25:57;;;;;;;1.10;0.60;;;;;;;9.44;100.00;97791.16;7394713;19;20011;-85
2022/12/28 11:28:23;;;;;;;0.10;0.10;;;;;;;9.73;100.00;97779.31;7391578;19;20022;-85
2022/12/28 11:30:51;;;;;;;0.20;0.10;;;;;;;9.84;100.00;97770.84;7392402;19;20021;-86
2022/12/28 11:33:44;;;;;;;1.65;0.98;;;;;;;10.01;100.00;97759.53;7391111;19;20011;-84
2022/12/28 11:36:19;;;;;;;1.25;0.25;;;;;;;9.66;100.00;97745.75;7387715;19;20023;-83
2022/12/28 11:38:48;;;;;;;0.68;0.32;;;;;;;9.55;100.00;97734.78;7389400;19;20098;-88
2022/12/28 11:41:39;;;;;;;0.35;0.10;;;;;;;9.50;100.00;97735.56;7393475;19;20023;-85
2022/12/28 11:44:19;;;;;;;1.92;0.45;;;;;;;9.48;100.00;97707.56;7393089;19;20022;-85
2022/12/28 11:47:17;;;;;;;1.13;0.32;;;;;;;10.14;100.00;97695.72;7391926;19;20022;-85
2022/12/28 11:49:44;;;;;;;27.95;3.58;;;;;;;9.74;100.00;97689.09;7390520;19;20010;-83
2022/12/28 11:52:13;;;;;;;1.10;0.52;;;;;;;9.67;100.00;97680.56;7391594;19;20108;-85
2022/12/28 11:54:49;;;;;;;6.68;1.50;;;;;;;9.63;100.00;97669.00;7389485;19;20010;-85
2022/12/28 11:57:39;;;;;;;1.13;0.70;;;;;;;9.60;100.00;97665.25;7392150;19;20015;-84
2022/12/28 12:00:37;;;;;;;6.88;1.35;;;;;;;9.58;100.00;97639.25;7389632;19;20449;-84
2022/12/28 12:03:03;;;;;;;2.08;0.98;;;;;;;9.57;100.00;97638.47;7390697;19;20070;-85
2022/12/28 12:05:35;;;;;;;1.05;0.38;;;;;;;9.58;100.00;97628.88;7390020;19;20110;-84
2022/12/28 12:08:22;;;;;;;4.38;0.65;;;;;;;9.59;100.00;97618.53;7391332;19;20435;-86
2022/12/28 12:11:09;;;;;;;0.00;0.00;;;;;;;9.61;100.00;97604.88;7387687;19;20027;-85
2022/12/28 12:13:42;;;;;;;0.20;0.20;;;;;;;9.65;100.00;97597.75;7392873;19;20077;-85
2022/12/28 12:16:17;;;;;;;0.35;0.35;;;;;;;9.52;100.00;97591.31;7389020;19;20105;-83
2022/12/28 12:18:49;;;;;;;5.28;0.60;;;;;;;9.49;100.00;97586.81;7389152;19;20022;-85
2022/12/28 12:21:32;;;;;;;0.85;0.35;;;;;;;9.44;100.00;97573.75;7389241;19;20091;-84